CYWH

Victoria Harbour Seaplane Base

Victoria, British Columbia, Canada
METAR CYWH 192000Z 18006KT 160V220 15SM FEW050 FEW150 15/12 A3004 RMK CU1AC2 CU TR SLP174
Observed Flight Rules
Jun-19 @ 20:00 UTC (20 minutes ago) Visual Flight Rules
Wind Visibility Clouds
180° at 6 knots 15 miles
  • Few at 5,000' AGL
  • Few at 15,000' AGL
Temperatures Readings
Current 15°C / 59°F
Dewpoint 12°C / 54°F
Humidity 82%
Altimeter 30.04" Hg
Pressure 1017.4 hPa
Elevation 10
METAR CYWH 192000Z 18006KT 160V220 15SM FEW050 FEW150 15/12 A3004 RMK CU1AC2 CU TR SLP174
Observed Flight Rules
Jun-19 @ 20:00 UTC
(20 minutes ago)
VFR
Wind Visibility
180° at 6 knots 15 miles
Clouds
  • Few at 5,000' AGL
  • Few at 15,000' AGL
Temperature Dewpoint
15°C / 59°F 12°C / 54°F
Humidity Altimeter Pressure
82% 30.04" Hg 1017.4 hPa